createdAt,value
2019-06-19T00:00:02.865Z,22.50
2019-06-19T00:01:27.764Z,22.50
2019-06-19T00:02:53.383Z,22.60
2019-06-19T00:04:19.467Z,22.50
2019-06-19T00:05:44.938Z,22.50
2019-06-19T00:07:11.016Z,22.50
2019-06-19T00:08:36.550Z,22.50
2019-06-19T00:10:03.362Z,22.50
2019-06-19T00:11:29.095Z,22.50
2019-06-19T00:12:55.271Z,22.40
2019-06-19T00:14:22.488Z,22.40
2019-06-19T00:15:48.495Z,22.30
2019-06-19T00:17:14.014Z,22.30
2019-06-19T00:18:40.086Z,22.40
2019-06-19T00:20:05.964Z,22.40
2019-06-19T00:21:33.152Z,22.40
2019-06-19T00:22:58.759Z,22.40
2019-06-19T00:24:24.856Z,22.40
2019-06-19T00:25:52.552Z,22.40
2019-06-19T00:27:18.150Z,22.40
2019-06-19T00:28:43.607Z,22.40
2019-06-19T00:30:12.812Z,22.40
2019-06-19T00:31:40.682Z,22.40
2019-06-19T00:33:06.152Z,22.40
2019-06-19T00:34:31.664Z,22.40
2019-06-19T00:35:57.739Z,22.40
2019-06-19T00:37:23.292Z,22.40
2019-06-19T00:38:51.088Z,22.40
2019-06-19T00:40:20.630Z,22.40
2019-06-19T00:41:45.820Z,22.40
2019-06-19T00:43:11.414Z,22.30
2019-06-19T00:44:37.492Z,22.30
2019-06-19T00:46:02.975Z,22.30
2019-06-19T00:47:31.381Z,22.30
2019-06-19T00:48:56.152Z,22.30
2019-06-19T00:50:22.740Z,22.40
2019-06-19T00:51:48.343Z,22.40
2019-06-19T00:53:14.379Z,22.30
2019-06-19T00:54:44.192Z,22.30
2019-06-19T00:56:17.239Z,22.30
2019-06-19T00:57:43.145Z,22.30
2019-06-19T00:59:11.114Z,22.30
2019-06-19T01:00:36.672Z,22.30
2019-06-19T01:02:02.734Z,22.30
2019-06-19T01:03:31.046Z,22.30
2019-06-19T01:04:55.988Z,22.30
2019-06-19T01:06:21.847Z,22.30
2019-06-19T01:07:48.021Z,22.30
2019-06-19T01:09:13.472Z,22.30
2019-06-19T01:10:41.680Z,22.30
2019-06-19T01:12:06.668Z,22.30
2019-06-19T01:13:32.704Z,22.30
2019-06-19T01:14:58.208Z,22.20
2019-06-19T01:16:24.267Z,22.30
2019-06-19T01:17:50.814Z,22.30
2019-06-19T01:19:17.207Z,22.30
2019-06-19T01:20:42.894Z,22.30
2019-06-19T01:22:11.326Z,22.30
2019-06-19T01:23:36.157Z,22.30
2019-06-19T01:25:02.444Z,22.30
2019-06-19T01:26:28.009Z,22.30
2019-06-19T01:27:54.077Z,22.30
2019-06-19T01:29:21.828Z,22.30
2019-06-19T01:30:47.400Z,22.30
2019-06-19T01:32:12.971Z,22.20
2019-06-19T01:33:41.447Z,22.20
2019-06-19T01:35:07.416Z,22.20
2019-06-19T01:36:33.580Z,22.20
2019-06-19T01:38:01.583Z,22.10
2019-06-19T01:39:26.821Z,22.10
2019-06-19T01:40:52.415Z,22.10
2019-06-19T01:42:18.466Z,22.20
2019-06-19T01:43:43.983Z,22.20
2019-06-19T01:45:11.338Z,22.20
2019-06-19T01:46:37.068Z,22.10
2019-06-19T01:48:03.148Z,22.20
2019-06-19T01:49:30.665Z,22.30
2019-06-19T01:50:56.364Z,22.20
2019-06-19T01:52:22.154Z,22.20
2019-06-19T01:54:21.775Z,22.20
2019-06-19T01:55:46.799Z,22.20
2019-06-19T01:57:12.276Z,22.20
2019-06-19T01:58:38.372Z,22.20
2019-06-19T02:00:03.966Z,22.20
2019-06-19T02:01:31.190Z,22.20
2019-06-19T02:02:56.951Z,22.20
2019-06-19T02:04:23.243Z,22.20
2019-06-19T02:05:50.854Z,22.20
2019-06-19T02:07:16.415Z,22.20
2019-06-19T02:08:41.907Z,22.10
2019-06-19T02:10:10.710Z,22.10
2019-06-19T02:11:35.591Z,22.20
2019-06-19T02:13:01.652Z,22.20
2019-06-19T02:14:27.305Z,22.20
2019-06-19T02:15:53.376Z,22.20
2019-06-19T02:17:21.371Z,22.20
2019-06-19T02:18:46.540Z,22.10
2019-06-19T02:20:12.129Z,22.10
2019-06-19T02:21:38.201Z,22.10
2019-06-19T02:23:03.707Z,22.10
2019-06-19T02:24:31.057Z,22.10
2019-06-19T02:25:56.779Z,22.10
2019-06-19T02:27:22.878Z,22.10
2019-06-19T02:28:50.441Z,22.10
2019-06-19T02:30:16.399Z,22.00
2019-06-19T02:31:42.527Z,22.10
2019-06-19T02:33:12.407Z,22.00
2019-06-19T02:34:36.061Z,22.00
2019-06-19T02:36:02.714Z,22.00
2019-06-19T02:37:31.775Z,22.00
2019-06-19T02:38:55.985Z,22.00
2019-06-19T02:40:21.440Z,22.00
2019-06-19T02:41:47.512Z,22.00
2019-06-19T02:43:13.117Z,22.00
2019-06-19T02:44:39.154Z,21.90
2019-06-19T02:46:04.713Z,21.90
2019-06-19T02:47:30.991Z,22.00
2019-06-19T02:48:56.576Z,22.10
2019-06-19T02:50:22.762Z,22.10
2019-06-19T02:51:48.272Z,22.00
2019-06-19T02:53:14.432Z,22.00
2019-06-19T02:54:40.148Z,21.90
2019-06-19T02:56:06.409Z,22.00
2019-06-19T02:57:31.968Z,22.00
2019-06-19T02:58:58.288Z,21.90
2019-06-19T03:00:26.726Z,21.90
2019-06-19T03:01:52.814Z,21.90
2019-06-19T03:03:18.440Z,21.90
2019-06-19T03:04:44.499Z,21.90
2019-06-19T03:06:10.091Z,21.90
2019-06-19T03:07:36.163Z,21.90
2019-06-19T03:09:01.668Z,21.90
2019-06-19T03:10:27.740Z,21.90
2019-06-19T03:11:53.301Z,21.90
2019-06-19T03:13:19.365Z,21.90
2019-06-19T03:14:44.868Z,21.90
2019-06-19T03:16:10.916Z,21.90
2019-06-19T03:17:36.380Z,21.80
2019-06-19T03:19:02.467Z,21.90
2019-06-19T03:20:28.059Z,21.90
2019-06-19T03:21:54.191Z,21.90
2019-06-19T03:23:19.734Z,22.00
2019-06-19T03:24:45.811Z,21.90
2019-06-19T03:26:11.324Z,21.90
2019-06-19T03:27:37.370Z,21.90
2019-06-19T03:29:02.856Z,21.90
2019-06-19T03:30:29.006Z,21.90
2019-06-19T03:31:54.529Z,21.90
2019-06-19T03:33:20.565Z,21.90
2019-06-19T03:34:46.142Z,21.90
2019-06-19T03:36:13.291Z,21.90
2019-06-19T03:37:38.768Z,21.90
2019-06-19T03:39:06.220Z,21.90
2019-06-19T03:40:31.795Z,21.90
2019-06-19T03:41:57.848Z,21.90
2019-06-19T03:43:23.580Z,21.80
2019-06-19T03:44:49.622Z,21.80
2019-06-19T03:46:15.117Z,21.80
2019-06-19T03:47:41.156Z,21.80
2019-06-19T03:49:06.666Z,21.80
2019-06-19T03:50:32.732Z,21.80
2019-06-19T03:51:58.195Z,21.90
2019-06-19T03:53:24.371Z,21.80
2019-06-19T03:54:49.870Z,21.80
2019-06-19T03:56:15.935Z,21.80
2019-06-19T03:57:41.440Z,21.80
2019-06-19T03:59:07.608Z,21.80
2019-06-19T04:00:33.132Z,21.80
2019-06-19T04:02:01.439Z,21.80
2019-06-19T04:03:26.988Z,21.80
2019-06-19T04:04:53.241Z,21.80
2019-06-19T04:06:18.747Z,21.80
2019-06-19T04:07:44.787Z,21.80
2019-06-19T04:09:10.268Z,21.80
2019-06-19T04:10:36.485Z,21.80
2019-06-19T04:12:01.950Z,21.80
2019-06-19T04:13:28.004Z,21.80
2019-06-19T04:14:53.494Z,21.80
2019-06-19T04:16:19.697Z,21.80
2019-06-19T04:17:45.224Z,21.80
2019-06-19T04:19:11.291Z,21.80
2019-06-19T04:20:36.838Z,21.80
2019-06-19T04:22:02.882Z,21.80
2019-06-19T04:23:28.356Z,21.80
2019-06-19T04:24:54.434Z,21.80
2019-06-19T04:26:20.207Z,21.80
2019-06-19T04:27:46.331Z,21.80
2019-06-19T04:29:16.008Z,21.80
2019-06-19T04:30:42.276Z,21.80
2019-06-19T04:32:12.124Z,21.80
2019-06-19T04:33:35.890Z,21.80
2019-06-19T04:35:01.369Z,21.80
2019-06-19T04:36:27.445Z,21.90
2019-06-19T04:37:52.965Z,21.80
2019-06-19T04:39:19.226Z,21.80
2019-06-19T04:40:44.929Z,21.80
2019-06-19T04:42:11.128Z,21.80
2019-06-19T04:43:36.688Z,21.80
2019-06-19T04:45:02.872Z,21.70
2019-06-19T04:46:28.411Z,21.60
2019-06-19T04:47:54.545Z,21.50
2019-06-19T04:49:20.231Z,21.60
2019-06-19T04:50:46.342Z,21.60
2019-06-19T04:52:12.032Z,21.60
2019-06-19T04:53:38.201Z,21.70
2019-06-19T04:55:03.815Z,21.70
2019-06-19T04:56:30.311Z,21.70
2019-06-19T04:57:55.896Z,21.70
2019-06-19T04:59:22.257Z,21.70
2019-06-19T05:00:48.068Z,21.70
2019-06-19T05:02:21.011Z,21.70
2019-06-19T05:03:41.579Z,21.80
2019-06-19T05:05:07.948Z,21.80
2019-06-19T05:06:33.563Z,21.80
2019-06-19T05:07:59.600Z,21.80
2019-06-19T05:09:25.325Z,21.80
2019-06-19T05:10:51.523Z,21.70
2019-06-19T05:12:17.307Z,21.70
2019-06-19T05:13:43.470Z,21.70
2019-06-19T05:15:09.060Z,21.60
2019-06-19T05:16:35.269Z,21.60
2019-06-19T05:18:00.727Z,21.60
2019-06-19T05:19:26.762Z,21.70
2019-06-19T05:20:52.348Z,21.70
2019-06-19T05:22:18.406Z,21.70
2019-06-19T05:23:43.905Z,21.60
2019-06-19T05:25:10.163Z,21.60
2019-06-19T05:26:35.678Z,21.70
2019-06-19T05:28:01.734Z,21.70
2019-06-19T05:29:27.187Z,21.60
2019-06-19T05:30:53.233Z,21.70
2019-06-19T05:32:18.725Z,21.70
2019-06-19T05:33:44.800Z,21.70
2019-06-19T05:35:10.679Z,21.80
2019-06-19T05:36:36.744Z,21.80
2019-06-19T05:38:02.203Z,21.80
2019-06-19T05:39:28.303Z,21.90
2019-06-19T05:40:53.899Z,21.90
2019-06-19T05:42:20.216Z,21.80
2019-06-19T05:43:45.727Z,21.80
2019-06-19T05:45:11.861Z,21.80
2019-06-19T05:46:37.453Z,21.90
2019-06-19T05:48:03.503Z,21.80
2019-06-19T05:49:29.022Z,21.80
2019-06-19T05:50:55.157Z,21.80
2019-06-19T05:52:20.681Z,21.80
2019-06-19T05:55:17.646Z,21.80
2019-06-19T05:56:43.751Z,21.90
2019-06-19T05:58:09.160Z,21.90
2019-06-19T05:59:35.353Z,21.80
2019-06-19T06:01:00.940Z,21.90
2019-06-19T06:02:27.135Z,21.90
2019-06-19T06:03:52.620Z,21.90
2019-06-19T06:05:18.673Z,21.90
2019-06-19T06:06:44.152Z,21.90
2019-06-19T06:08:10.213Z,21.90
2019-06-19T06:09:38.277Z,22.00
2019-06-19T06:11:03.274Z,21.80
2019-06-19T06:12:28.883Z,21.90
2019-06-19T06:13:54.993Z,21.90
2019-06-19T06:15:20.531Z,21.80
2019-06-19T06:16:46.586Z,21.80
2019-06-19T06:18:12.080Z,21.80
2019-06-19T06:19:38.133Z,21.80
2019-06-19T06:21:36.231Z,21.80
2019-06-19T06:23:02.677Z,21.80
2019-06-19T06:24:28.197Z,21.80
2019-06-19T06:26:06.389Z,21.90
2019-06-19T06:27:31.868Z,21.90
2019-06-19T06:28:57.958Z,21.80
2019-06-19T06:30:23.700Z,21.90
2019-06-19T06:31:49.735Z,21.90
2019-06-19T06:33:15.246Z,21.90
2019-06-19T06:34:41.397Z,21.90
2019-06-19T06:36:07.232Z,21.90
2019-06-19T06:37:33.317Z,22.00
2019-06-19T06:38:58.784Z,21.90
2019-06-19T06:40:25.112Z,21.90
2019-06-19T06:41:50.657Z,21.90
2019-06-19T06:43:16.776Z,21.90
2019-06-19T06:44:42.242Z,22.00
2019-06-19T06:46:08.616Z,21.90
2019-06-19T06:47:34.050Z,21.90
2019-06-19T06:49:00.227Z,22.00
2019-06-19T06:50:25.784Z,22.00
2019-06-19T06:51:51.887Z,22.00
2019-06-19T06:53:17.461Z,22.00
2019-06-19T06:54:43.627Z,22.10
2019-06-19T06:56:09.256Z,22.10
2019-06-19T06:57:35.421Z,22.10
2019-06-19T06:59:01.138Z,22.10
2019-06-19T07:00:37.122Z,22.10
2019-06-19T07:02:02.708Z,22.10
2019-06-19T07:03:28.900Z,22.10
2019-06-19T07:04:54.371Z,22.10
2019-06-19T07:06:20.450Z,22.10
2019-06-19T07:07:45.921Z,22.10
2019-06-19T07:09:11.979Z,22.10
2019-06-19T07:10:37.495Z,22.10
2019-06-19T07:12:03.551Z,22.10
2019-06-19T07:13:29.029Z,22.10
2019-06-19T07:14:55.196Z,22.20
2019-06-19T07:16:20.704Z,22.20
2019-06-19T07:17:46.738Z,22.20
2019-06-19T07:19:12.343Z,22.20
2019-06-19T07:20:38.519Z,22.20
2019-06-19T07:22:04.040Z,22.20
2019-06-19T07:23:30.137Z,22.20
2019-06-19T07:24:55.613Z,22.20
2019-06-19T07:26:21.732Z,22.20
2019-06-19T07:27:47.227Z,22.20
2019-06-19T07:29:13.304Z,22.20
2019-06-19T07:30:38.823Z,22.20
2019-06-19T07:32:04.943Z,22.20
2019-06-19T07:33:40.843Z,22.20
2019-06-19T07:34:58.164Z,22.20
2019-06-19T07:36:23.671Z,22.20
2019-06-19T07:37:49.875Z,22.20
2019-06-19T07:39:19.110Z,22.20
2019-06-19T07:40:43.317Z,22.20
2019-06-19T07:42:09.563Z,22.20
2019-06-19T07:43:38.970Z,22.20
2019-06-19T07:45:02.874Z,22.30
2019-06-19T07:46:29.003Z,22.30
2019-06-19T07:47:54.487Z,22.30
2019-06-19T07:49:20.570Z,22.30
2019-06-19T07:50:46.063Z,22.30
2019-06-19T07:52:12.070Z,22.30
2019-06-19T07:53:37.540Z,22.30
2019-06-19T07:55:03.632Z,22.30
2019-06-19T07:56:29.417Z,22.40
2019-06-19T07:57:55.625Z,22.30
2019-06-19T07:59:21.069Z,22.30
2019-06-19T08:00:47.180Z,22.40
2019-06-19T08:02:12.626Z,22.40
2019-06-19T08:03:38.767Z,22.40
2019-06-19T08:05:04.460Z,22.40
2019-06-19T08:06:30.738Z,22.40
2019-06-19T08:07:56.179Z,22.50
2019-06-19T08:09:22.380Z,22.40
2019-06-19T08:10:48.008Z,22.50
2019-06-19T08:12:14.095Z,22.50
2019-06-19T08:13:39.560Z,22.50
2019-06-19T08:15:06.364Z,22.50
2019-06-19T08:16:31.815Z,22.50
2019-06-19T08:17:57.913Z,22.50
2019-06-19T08:19:23.472Z,22.50
2019-06-19T08:20:49.774Z,22.50
2019-06-19T08:22:15.284Z,22.50
2019-06-19T08:23:41.676Z,22.50
2019-06-19T08:25:07.424Z,22.50
2019-06-19T08:26:33.475Z,22.50
2019-06-19T08:27:59.058Z,22.50
2019-06-19T08:29:25.087Z,22.50
2019-06-19T08:30:50.679Z,22.50
2019-06-19T08:32:16.805Z,22.60
2019-06-19T08:33:42.286Z,22.70
2019-06-19T08:35:08.632Z,22.60
2019-06-19T08:36:34.260Z,22.60
2019-06-19T08:38:00.329Z,22.70
2019-06-19T08:39:25.847Z,22.70
2019-06-19T08:41:00.299Z,22.80
2019-06-19T08:42:19.006Z,22.70
2019-06-19T08:43:45.146Z,22.70
2019-06-19T08:45:11.215Z,22.70
2019-06-19T08:46:37.293Z,22.70
2019-06-19T08:48:02.736Z,22.80
2019-06-19T08:49:28.780Z,22.80
2019-06-19T08:50:54.334Z,22.80
2019-06-19T08:52:20.509Z,22.80
2019-06-19T08:53:45.980Z,22.90
2019-06-19T08:55:12.181Z,22.90
2019-06-19T08:56:37.680Z,22.90
2019-06-19T08:58:03.772Z,22.90
2019-06-19T08:59:29.264Z,22.90
2019-06-19T09:00:55.323Z,23.00
2019-06-19T09:02:20.827Z,23.00
2019-06-19T09:03:48.460Z,23.00
2019-06-19T09:05:14.155Z,23.10
2019-06-19T09:06:40.228Z,23.10
2019-06-19T09:08:05.880Z,23.20
2019-06-19T09:09:35.135Z,23.20
2019-06-19T09:11:08.828Z,23.20
2019-06-19T09:12:34.905Z,23.30
2019-06-19T09:14:00.394Z,23.30
2019-06-19T09:15:26.523Z,23.30
2019-06-19T09:16:51.995Z,23.20
2019-06-19T09:18:18.142Z,23.20
2019-06-19T09:19:43.715Z,23.30
2019-06-19T09:21:09.868Z,23.20
2019-06-19T09:22:35.396Z,23.30
2019-06-19T09:24:01.420Z,23.40
2019-06-19T09:25:26.884Z,23.50
2019-06-19T09:26:52.915Z,23.50
2019-06-19T09:28:18.408Z,23.50
2019-06-19T09:29:44.448Z,23.50
2019-06-19T09:31:10.169Z,23.50
2019-06-19T09:32:36.238Z,23.50
2019-06-19T09:34:01.728Z,23.60
2019-06-19T09:35:27.752Z,23.70
2019-06-19T09:36:53.224Z,23.70
2019-06-19T09:38:19.428Z,23.80
2019-06-19T09:39:44.896Z,23.80
2019-06-19T09:41:11.020Z,23.90
2019-06-19T09:42:36.534Z,23.90
2019-06-19T09:44:02.584Z,24.00
2019-06-19T09:45:28.816Z,24.00
2019-06-19T09:46:54.845Z,24.00
2019-06-19T09:48:20.428Z,24.00
2019-06-19T09:49:46.479Z,24.10
2019-06-19T09:51:11.964Z,24.20
2019-06-19T09:52:38.035Z,24.10
2019-06-19T09:54:04.535Z,24.10
2019-06-19T09:55:30.914Z,24.10
2019-06-19T09:56:56.403Z,24.10
2019-06-19T09:58:22.532Z,24.20
2019-06-19T09:59:48.053Z,24.30
2019-06-19T10:01:15.101Z,24.30
2019-06-19T10:02:40.652Z,24.40
2019-06-19T10:04:07.015Z,24.40
2019-06-19T10:05:32.571Z,24.50
2019-06-19T10:06:58.722Z,24.50
2019-06-19T10:08:24.192Z,24.50
2019-06-19T10:09:50.385Z,24.50
2019-06-19T10:11:15.820Z,24.40
2019-06-19T10:12:41.976Z,24.50
2019-06-19T10:14:07.689Z,24.50
2019-06-19T10:15:33.748Z,24.50
2019-06-19T10:16:59.195Z,24.50
2019-06-19T10:18:25.328Z,24.60
2019-06-19T10:19:50.907Z,24.60
2019-06-19T10:21:17.241Z,24.60
2019-06-19T10:22:42.689Z,24.60
2019-06-19T10:24:08.952Z,24.60
2019-06-19T10:25:34.439Z,24.60
2019-06-19T10:27:00.471Z,24.60
2019-06-19T10:28:25.923Z,24.60
2019-06-19T10:29:51.984Z,24.70
2019-06-19T10:31:17.455Z,24.70
2019-06-19T10:32:43.521Z,24.60
2019-06-19T10:34:09.003Z,24.50
2019-06-19T10:35:35.176Z,24.50
2019-06-19T10:37:00.673Z,24.40
2019-06-19T10:38:26.807Z,24.40
2019-06-19T10:39:52.314Z,24.50
2019-06-19T10:41:18.422Z,24.60
2019-06-19T10:42:43.947Z,24.60
2019-06-19T10:44:10.076Z,24.50
2019-06-19T10:45:35.764Z,24.60
2019-06-19T10:47:01.978Z,24.60
2019-06-19T10:48:27.685Z,24.70
2019-06-19T10:49:53.903Z,24.80
2019-06-19T10:51:19.393Z,24.90
2019-06-19T10:52:45.448Z,25.00
2019-06-19T10:54:10.982Z,25.00
2019-06-19T10:55:37.044Z,25.10
2019-06-19T10:57:02.577Z,25.10
2019-06-19T10:58:28.739Z,25.10
2019-06-19T10:59:54.278Z,25.10
2019-06-19T11:01:20.392Z,25.10
2019-06-19T11:02:45.884Z,24.90
2019-06-19T11:04:12.048Z,25.00
2019-06-19T11:05:40.035Z,24.90
2019-06-19T11:07:05.351Z,24.90
2019-06-19T11:08:30.790Z,24.90
2019-06-19T11:09:56.892Z,24.90
2019-06-19T11:11:22.331Z,24.80
2019-06-19T11:12:48.422Z,24.90
2019-06-19T11:14:13.875Z,24.90
2019-06-19T11:15:40.084Z,24.90
2019-06-19T11:17:05.671Z,24.80
2019-06-19T11:18:31.833Z,24.80
2019-06-19T11:19:57.324Z,24.80
2019-06-19T11:21:26.139Z,24.70
2019-06-19T11:22:50.557Z,24.70
2019-06-19T11:24:16.567Z,24.70
2019-06-19T11:25:42.064Z,24.70
2019-06-19T11:27:08.231Z,24.80
2019-06-19T11:28:33.684Z,24.80
2019-06-19T11:29:59.846Z,24.80
2019-06-19T11:31:25.281Z,24.80
2019-06-19T11:32:51.353Z,24.90
2019-06-19T11:34:16.842Z,25.00
2019-06-19T11:35:55.786Z,25.10
2019-06-19T11:37:10.097Z,25.10
2019-06-19T11:38:36.205Z,25.20
2019-06-19T11:40:01.632Z,25.30
2019-06-19T11:41:27.707Z,25.30
2019-06-19T11:42:53.136Z,25.40
2019-06-19T11:44:19.161Z,25.40
2019-06-19T11:45:44.663Z,25.50
2019-06-19T11:47:10.691Z,25.50
2019-06-19T11:48:37.652Z,25.60
2019-06-19T11:50:03.712Z,25.60
2019-06-19T11:51:29.197Z,25.70
2019-06-19T11:52:55.260Z,25.80
2019-06-19T11:54:20.700Z,25.90
2019-06-19T11:55:46.865Z,26.00
2019-06-19T11:57:12.316Z,26.00
2019-06-19T11:58:40.261Z,25.90
2019-06-19T12:00:07.259Z,25.90
2019-06-19T12:01:33.499Z,25.90
2019-06-19T12:02:58.992Z,25.90
2019-06-19T12:04:25.024Z,25.90
2019-06-19T12:05:50.537Z,26.00
2019-06-19T12:07:16.577Z,26.00
2019-06-19T12:08:42.034Z,26.10
2019-06-19T12:10:08.838Z,26.10
2019-06-19T12:11:34.301Z,26.10
2019-06-19T12:13:00.369Z,26.10
2019-06-19T12:14:25.851Z,26.20
2019-06-19T12:15:51.919Z,26.20
2019-06-19T12:17:17.466Z,26.20
2019-06-19T12:18:43.501Z,26.30
2019-06-19T12:20:11.072Z,26.30
2019-06-19T12:21:37.167Z,26.20
2019-06-19T12:23:02.659Z,26.10
2019-06-19T12:24:31.150Z,26.10
2019-06-19T12:25:55.840Z,26.10
2019-06-19T12:27:21.952Z,26.00
2019-06-19T12:28:47.599Z,25.90
2019-06-19T12:30:14.035Z,25.80
2019-06-19T12:31:39.536Z,25.80
2019-06-19T12:33:05.692Z,25.70
2019-06-19T12:34:31.145Z,25.70
2019-06-19T12:35:57.221Z,25.70
2019-06-19T12:37:22.756Z,25.60
2019-06-19T12:38:48.926Z,25.60
2019-06-19T12:40:16.128Z,25.50
2019-06-19T12:41:42.208Z,25.40
2019-06-19T12:43:07.775Z,25.30
2019-06-19T12:44:33.760Z,25.20
2019-06-19T12:45:59.437Z,25.20
2019-06-19T12:47:25.484Z,25.20
2019-06-19T12:48:51.729Z,25.20
2019-06-19T12:50:20.662Z,25.10
2019-06-19T12:51:46.207Z,25.00
2019-06-19T12:53:12.283Z,24.90
2019-06-19T12:54:37.859Z,24.90
2019-06-19T12:56:03.920Z,24.90
2019-06-19T12:57:29.421Z,24.90
2019-06-19T12:58:55.476Z,24.80
2019-06-19T13:00:21.394Z,24.90
2019-06-19T13:01:47.563Z,24.80
2019-06-19T13:03:13.064Z,24.70
2019-06-19T13:04:39.113Z,24.80
2019-06-19T13:06:04.683Z,24.80
2019-06-19T13:07:30.737Z,24.70
2019-06-19T13:08:56.376Z,24.70
2019-06-19T13:10:22.626Z,24.70
2019-06-19T13:11:48.291Z,24.70
2019-06-19T13:13:14.940Z,24.80
2019-06-19T13:14:40.381Z,24.70
2019-06-19T13:16:10.117Z,24.80
2019-06-19T13:17:33.644Z,24.80
2019-06-19T13:18:59.696Z,24.70
2019-06-19T13:20:25.294Z,24.60
2019-06-19T13:21:51.416Z,24.60
2019-06-19T13:23:16.929Z,24.50
2019-06-19T13:24:43.079Z,24.50
2019-06-19T13:26:08.615Z,24.50
2019-06-19T13:27:34.640Z,24.50
2019-06-19T13:29:00.147Z,24.50
2019-06-19T13:30:26.768Z,24.50
2019-06-19T13:31:52.720Z,24.50
2019-06-19T13:33:19.069Z,24.60
2019-06-19T13:34:44.537Z,24.60
2019-06-19T13:36:10.584Z,24.60
2019-06-19T13:37:36.069Z,24.70
2019-06-19T13:39:02.184Z,24.60
2019-06-19T13:40:27.823Z,24.60
2019-06-19T13:41:56.578Z,24.60
2019-06-19T13:43:22.044Z,24.60
2019-06-19T13:44:48.255Z,24.50
2019-06-19T13:46:13.680Z,24.50
2019-06-19T13:47:40.008Z,24.50
2019-06-19T13:49:05.645Z,24.50
2019-06-19T13:50:31.801Z,24.50
2019-06-19T13:51:57.489Z,24.50
2019-06-19T13:53:23.605Z,24.50
2019-06-19T13:54:49.048Z,24.60
2019-06-19T13:56:15.416Z,24.50
2019-06-19T13:57:46.967Z,24.60
2019-06-19T13:59:08.928Z,24.60
2019-06-19T14:00:34.376Z,24.70
2019-06-19T14:02:00.408Z,24.70
2019-06-19T14:03:28.919Z,24.80
2019-06-19T14:04:55.129Z,24.80
2019-06-19T14:06:20.691Z,24.80
2019-06-19T14:07:46.735Z,24.80
2019-06-19T14:09:12.237Z,24.90
2019-06-19T14:10:38.292Z,24.80
2019-06-19T14:12:03.751Z,24.80
2019-06-19T14:13:29.805Z,24.90
2019-06-19T14:14:55.297Z,24.80
2019-06-19T14:16:21.358Z,24.80
2019-06-19T14:17:46.813Z,24.90
2019-06-19T14:19:12.900Z,24.90
2019-06-19T14:20:38.358Z,24.90
2019-06-19T14:22:04.498Z,24.90
2019-06-19T14:23:29.935Z,24.90
2019-06-19T14:24:56.326Z,24.90
2019-06-19T14:26:21.751Z,24.90
2019-06-19T14:27:47.903Z,24.90
2019-06-19T14:29:13.360Z,24.90
2019-06-19T14:30:39.592Z,24.90
2019-06-19T14:32:05.226Z,24.90
2019-06-19T14:33:31.309Z,24.90
2019-06-19T14:34:56.812Z,24.90
2019-06-19T14:36:22.812Z,24.90
2019-06-19T14:37:48.270Z,24.90
2019-06-19T14:39:14.281Z,25.00
2019-06-19T14:40:39.752Z,25.00
2019-06-19T14:42:06.003Z,25.00
2019-06-19T14:43:31.500Z,25.00
2019-06-19T14:44:57.687Z,25.00
2019-06-19T14:46:23.179Z,25.10
2019-06-19T14:47:49.215Z,25.10
2019-06-19T14:49:15.343Z,25.10
2019-06-19T14:50:43.047Z,25.10
2019-06-19T14:52:08.541Z,25.10
2019-06-19T14:53:34.654Z,25.10
2019-06-19T14:55:00.110Z,25.10
2019-06-19T14:56:26.322Z,25.10
2019-06-19T14:57:51.871Z,25.00
2019-06-19T14:59:17.932Z,25.00
2019-06-19T15:00:54.391Z,25.10
2019-06-19T15:02:20.522Z,25.00
2019-06-19T15:03:46.091Z,25.00
2019-06-19T15:05:12.472Z,24.90
2019-06-19T15:06:38.050Z,25.00
2019-06-19T15:08:04.332Z,25.00
2019-06-19T15:09:46.049Z,25.00
2019-06-19T15:10:57.447Z,24.90
2019-06-19T15:12:22.912Z,24.90
2019-06-19T15:13:48.976Z,24.90
2019-06-19T15:15:14.560Z,24.90
2019-06-19T15:16:40.608Z,24.90
2019-06-19T15:18:06.051Z,24.80
2019-06-19T15:19:32.157Z,24.80
2019-06-19T15:20:57.683Z,24.80
2019-06-19T15:22:23.757Z,24.70
2019-06-19T15:23:49.230Z,24.70
2019-06-19T15:25:15.600Z,24.70
2019-06-19T15:26:41.127Z,24.70
2019-06-19T15:28:07.190Z,24.70
2019-06-19T15:29:32.648Z,24.70
2019-06-19T15:30:58.730Z,24.70
2019-06-19T15:32:24.167Z,24.80
2019-06-19T15:33:50.175Z,24.80
2019-06-19T15:35:15.838Z,24.80
2019-06-19T15:36:41.894Z,24.80
2019-06-19T15:38:11.637Z,24.90
2019-06-19T15:39:37.844Z,24.90
2019-06-19T15:41:03.418Z,24.90
2019-06-19T15:42:29.635Z,24.90
2019-06-19T15:43:55.167Z,24.90
2019-06-19T15:45:21.475Z,24.90
2019-06-19T15:46:46.981Z,25.00
2019-06-19T15:48:13.011Z,25.10
2019-06-19T15:49:38.704Z,25.10
2019-06-19T15:51:04.895Z,25.00
2019-06-19T15:52:33.426Z,25.00
2019-06-19T15:53:59.591Z,25.10
2019-06-19T15:55:25.204Z,25.10
2019-06-19T15:56:51.278Z,25.10
2019-06-19T15:58:16.708Z,25.10
2019-06-19T15:59:42.750Z,25.10
2019-06-19T16:01:08.210Z,25.10
2019-06-19T16:02:34.296Z,25.20
2019-06-19T16:03:59.732Z,25.20
2019-06-19T16:05:25.796Z,25.20
2019-06-19T16:06:51.297Z,25.20
2019-06-19T16:08:28.177Z,25.20
2019-06-19T16:09:44.470Z,25.20
2019-06-19T16:11:10.623Z,25.30
2019-06-19T16:12:36.156Z,25.30
2019-06-19T16:14:02.247Z,25.30
2019-06-19T16:15:27.843Z,25.40
2019-06-19T16:16:53.908Z,25.50
2019-06-19T16:18:19.401Z,25.50
2019-06-19T16:19:45.467Z,25.50
2019-06-19T16:21:10.939Z,25.50
2019-06-19T16:22:37.770Z,25.60
2019-06-19T16:24:03.225Z,25.60
2019-06-19T16:25:29.258Z,25.70
2019-06-19T16:26:54.829Z,25.80
2019-06-19T16:28:20.879Z,25.80
2019-06-19T16:29:46.329Z,25.80
2019-06-19T16:31:12.483Z,25.80
2019-06-19T16:32:38.075Z,25.90
2019-06-19T16:34:04.111Z,25.90
2019-06-19T16:35:29.596Z,25.90
2019-06-19T16:36:55.741Z,25.90
2019-06-19T16:38:21.249Z,25.90
2019-06-19T16:39:47.344Z,25.90
2019-06-19T16:41:12.816Z,25.90
2019-06-19T16:42:38.976Z,25.90
2019-06-19T16:44:04.521Z,25.90
2019-06-19T16:45:30.680Z,25.90
2019-06-19T16:46:56.156Z,25.90
2019-06-19T16:48:22.219Z,25.90
2019-06-19T16:49:47.676Z,25.90
2019-06-19T16:51:13.697Z,25.90
2019-06-19T16:52:42.273Z,25.90
2019-06-19T16:54:08.376Z,25.90
2019-06-19T16:55:33.900Z,25.90
2019-06-19T16:57:00.095Z,25.90
2019-06-19T16:58:25.565Z,25.90
2019-06-19T16:59:51.688Z,25.90
2019-06-19T17:01:17.240Z,25.90
2019-06-19T17:02:43.264Z,25.90
2019-06-19T17:04:11.195Z,26.00
2019-06-19T17:05:37.380Z,26.00
2019-06-19T17:07:02.827Z,26.00
2019-06-19T17:08:29.014Z,25.90
2019-06-19T17:09:54.511Z,25.90
2019-06-19T17:11:20.576Z,25.90
2019-06-19T17:12:46.058Z,26.00
2019-06-19T17:14:12.155Z,26.00
2019-06-19T17:15:37.678Z,26.00
2019-06-19T17:17:03.733Z,26.00
2019-06-19T17:18:29.226Z,26.00
2019-06-19T17:19:55.225Z,26.00
2019-06-19T17:21:20.668Z,26.10
2019-06-19T17:22:46.744Z,26.00
2019-06-19T17:24:12.223Z,26.00
2019-06-19T17:25:38.239Z,26.00
2019-06-19T17:27:03.787Z,26.00
2019-06-19T17:28:29.840Z,26.00
2019-06-19T17:29:55.435Z,26.00
2019-06-19T17:31:21.490Z,26.00
2019-06-19T17:32:47.067Z,26.00
2019-06-19T17:34:13.123Z,26.00
2019-06-19T17:35:38.613Z,26.00
2019-06-19T17:37:04.777Z,26.10
2019-06-19T17:38:30.226Z,26.00
2019-06-19T17:39:56.317Z,26.00
2019-06-19T17:41:21.846Z,26.00
2019-06-19T17:42:47.902Z,26.00
2019-06-19T17:44:13.363Z,26.00
2019-06-19T17:45:39.634Z,26.00
2019-06-19T17:47:05.129Z,26.00
2019-06-19T17:48:31.397Z,26.00
2019-06-19T17:49:56.876Z,26.00
2019-06-19T17:51:22.940Z,26.00
2019-06-19T17:52:48.433Z,25.90
2019-06-19T17:54:14.491Z,25.90
2019-06-19T17:55:39.999Z,25.90
2019-06-19T17:57:06.288Z,25.90
2019-06-19T17:58:31.807Z,25.90
2019-06-19T17:59:57.917Z,25.90
2019-06-19T18:01:23.570Z,25.90
2019-06-19T18:02:49.598Z,25.80
2019-06-19T18:04:15.054Z,25.80
2019-06-19T18:05:41.131Z,25.80
2019-06-19T18:07:06.628Z,25.80
2019-06-19T18:08:32.909Z,25.80
2019-06-19T18:09:58.453Z,25.80
2019-06-19T18:11:24.501Z,25.80
2019-06-19T18:12:49.955Z,25.70
2019-06-19T18:14:16.016Z,25.70
2019-06-19T18:15:41.517Z,25.70
2019-06-19T18:17:07.590Z,25.70
2019-06-19T18:18:33.052Z,25.70
2019-06-19T18:19:59.165Z,25.60
2019-06-19T18:21:24.680Z,25.60
2019-06-19T18:22:50.803Z,25.70
2019-06-19T18:24:16.274Z,25.60
2019-06-19T18:25:42.347Z,25.60
2019-06-19T18:27:07.843Z,25.60
2019-06-19T18:28:33.876Z,25.60
2019-06-19T18:29:59.370Z,25.60